Springfield, Vermont
Current Conditions -  °F | °C
As of 12:54 AM on Wednesday 22 Oct 2014 (Local Time) from KVSF Reporting Station
Overcast Overcast  
Wind Chill: 47°   Ceiling: 1500
Heat Index: 49°   Visibility: 10mi
Dew Point: 45°   Wind: 5mph
Humidity: 86%   Direction: 40°NE
Pressure: 30.05"   Gusts: NA
Location:  43.3°N, 72.48°W
Report Text: KVSF 220454Z AUTO 04004KT 10SM OVC015 09/07 A3005 RMK AO2 SLP180 T00940072 401000061
Loading
Personal Weather Stations






























Interactive Weather Map
Tropical Storm Tracking
New forecast layout! Learn more

10-Day Weather Forecast

Advertisements
Track Severe Weather on mobile